Time;durP1;ratioP1;P1;durP2;ratioP2;P2;SDS_P1;SDS_P2;PMS_P1;PMS_P2;Temp;Humidity;BMP_temperature;BMP_pressure;BME280_temperature;BME280_humidity;BME280_pressure;Samples;Min_cycle;Max_cycle;Signal;HPM_P1;HPM_P2
2023/05/30 00:00:05;;;;;;;4.05;2.58;;;;;;;12.54;100.00;92985.16;5089976;28;20051;-75
2023/05/30 00:02:32;;;;;;;6.03;3.33;;;;;;;12.33;100.00;92950.47;5089804;28;20052;-75
2023/05/30 00:04:59;;;;;;;4.15;2.58;;;;;;;12.48;100.00;92973.16;5090314;28;20056;-75
2023/05/30 00:07:26;;;;;;;3.33;2.00;;;;;;;12.51;100.00;92977.88;5090325;28;20048;-75
2023/05/30 00:09:54;;;;;;;3.90;2.25;;;;;;;12.42;100.00;92977.47;5089781;28;20051;-75
2023/05/30 00:12:21;;;;;;;4.05;2.33;;;;;;;12.45;100.00;92987.28;5089793;28;20047;-75
2023/05/30 00:14:48;;;;;;;4.00;2.13;;;;;;;12.41;100.00;92989.53;5089982;28;20389;-75
2023/05/30 00:17:16;;;;;;;3.53;1.80;;;;;;;12.40;100.00;92987.97;5089617;28;20040;-75
2023/05/30 00:19:44;;;;;;;3.22;2.15;;;;;;;12.29;100.00;92981.84;5089486;28;20036;-75
2023/05/30 00:22:11;;;;;;;2.75;1.85;;;;;;;12.32;100.00;92987.53;5089826;28;20079;-75
2023/05/30 00:24:38;;;;;;;3.78;2.47;;;;;;;12.31;100.00;92988.56;5089806;28;20048;-75
2023/05/30 00:27:07;;;;;;;4.05;2.40;;;;;;;12.24;100.00;92986.09;5089631;28;20093;-75
2023/05/30 00:29:33;;;;;;;3.47;2.53;;;;;;;12.16;100.00;92980.28;5089234;28;20101;-75
2023/05/30 00:32:00;;;;;;;4.30;2.65;;;;;;;12.14;100.00;92987.44;5089447;28;20055;-75
2023/05/30 00:34:27;;;;;;;3.97;2.80;;;;;;;12.13;100.00;92979.94;5089761;28;20048;-75
2023/05/30 00:36:54;;;;;;;3.58;2.40;;;;;;;12.10;100.00;92985.53;5089108;28;20496;-75
2023/05/30 00:39:20;;;;;;;3.05;2.10;;;;;;;12.07;100.00;92984.19;5089278;28;20052;-75
2023/05/30 00:41:47;;;;;;;4.78;2.20;;;;;;;12.07;100.00;92991.16;5089434;28;20500;-75
2023/05/30 00:44:16;;;;;;;3.13;2.55;;;;;;;12.02;100.00;92992.56;5088876;28;20412;-75
2023/05/30 00:46:43;;;;;;;3.25;2.03;;;;;;;11.96;100.00;92990.09;5080831;28;20044;-75
2023/05/30 00:49:10;;;;;;;3.22;2.30;;;;;;;12.00;100.00;92993.78;5089301;28;20055;-75
2023/05/30 00:51:37;;;;;;;3.22;2.00;;;;;;;11.94;100.00;92997.25;5089129;28;20389;-75
2023/05/30 00:54:04;;;;;;;4.28;2.58;;;;;;;11.93;100.00;92993.91;5089057;28;20101;-75
2023/05/30 00:56:31;;;;;;;3.58;2.30;;;;;;;11.93;100.00;92998.28;5089402;28;20055;-75
2023/05/30 00:58:59;;;;;;;3.28;2.13;;;;;;;11.89;100.00;93001.28;5088589;28;20048;-75
2023/05/30 01:01:27;;;;;;;3.63;2.08;;;;;;;11.89;100.00;93003.06;5089091;28;20044;-75
2023/05/30 01:03:56;;;;;;;3.42;2.22;;;;;;;11.87;100.00;92997.34;5089229;28;20087;-75
2023/05/30 01:06:27;;;;;;;3.33;2.28;;;;;;;11.81;100.00;92998.25;5088890;28;20044;-75
2023/05/30 01:08:54;;;;;;;4.40;2.17;;;;;;;11.77;100.00;92998.69;5075808;28;20514;-75
2023/05/30 01:11:30;;;;;;;2.53;1.92;;;;;;;11.71;100.00;92989.28;5088675;28;20044;-75
2023/05/30 01:14:07;;;;;;;3.25;2.00;;;;;;;11.62;100.00;92993.19;5088671;28;20471;-75
2023/05/30 01:16:40;;;;;;;3.70;2.33;;;;;;;11.63;100.00;93005.06;5088158;28;20044;-75
2023/05/30 01:19:28;;;;;;;3.95;2.00;;;;;;;11.50;100.00;92993.16;5088909;28;20052;-74
2023/05/30 01:22:09;;;;;;;3.50;2.22;;;;;;;11.42;100.00;92971.13;5076299;28;20565;-74
2023/05/30 01:24:37;;;;;;;3.40;2.22;;;;;;;11.35;100.00;92966.06;5088057;28;20044;-74
2023/05/30 01:27:13;;;;;;;4.30;2.53;;;;;;;11.55;100.00;92987.34;5088555;28;20052;-75
2023/05/30 01:29:43;;;;;;;6.43;2.65;;;;;;;11.55;100.00;92989.91;5087961;28;20055;-75
2023/05/30 01:32:10;;;;;;;3.35;2.05;;;;;;;11.48;100.00;92969.47;5088431;28;20098;-75
2023/05/30 01:34:38;;;;;;;3.38;2.33;;;;;;;11.45;100.00;92975.03;5088280;28;20480;-75
2023/05/30 01:37:05;;;;;;;3.40;2.28;;;;;;;11.45;100.00;92982.75;5087943;28;20074;-75
2023/05/30 01:39:32;;;;;;;3.65;2.20;;;;;;;11.47;100.00;92980.72;5088392;28;20178;-75
2023/05/30 01:42:10;;;;;;;2.97;1.98;;;;;;;11.45;100.00;92977.59;5088385;28;20044;-75
2023/05/30 01:44:41;;;;;;;3.85;2.25;;;;;;;11.40;100.00;92974.91;5076148;28;20135;-75
2023/05/30 01:47:15;;;;;;;2.58;1.75;;;;;;;11.36;100.00;92975.34;5087860;28;20055;-75
2023/05/30 01:49:51;;;;;;;3.38;2.05;;;;;;;11.35;100.00;92967.88;5088303;28;20051;-75
2023/05/30 01:52:22;;;;;;;3.72;2.30;;;;;;;11.37;100.00;92973.56;5087984;28;20044;-75
2023/05/30 01:54:54;;;;;;;3.58;2.17;;;;;;;11.36;100.00;92974.56;5087849;28;20123;-74
2023/05/30 01:57:23;;;;;;;3.72;2.15;;;;;;;11.38;100.00;92976.94;5087299;28;20140;-74
2023/05/30 01:59:51;;;;;;;4.00;2.67;;;;;;;11.31;100.00;92975.25;5087128;28;20048;-75
2023/05/30 02:02:19;;;;;;;3.67;2.30;;;;;;;11.27;100.00;92981.81;5076142;28;20505;-74
2023/05/30 02:04:46;;;;;;;3.00;2.20;;;;;;;11.06;100.00;92955.59;5086730;28;20040;-74
2023/05/30 02:07:12;;;;;;;4.03;1.90;;;;;;;11.25;100.00;92980.47;5087408;28;20055;-74
2023/05/30 02:09:41;;;;;;;3.92;2.33;;;;;;;11.19;100.00;92982.13;5087733;28;20044;-75
2023/05/30 02:12:09;;;;;;;2.83;1.98;;;;;;;11.17;100.00;92984.13;5087866;28;20044;-75
2023/05/30 02:14:36;;;;;;;3.85;2.22;;;;;;;11.20;100.00;92983.69;5069713;28;20099;-75
2023/05/30 02:17:03;;;;;;;3.35;2.35;;;;;;;11.27;100.00;92983.59;5067498;28;20079;-75
2023/05/30 02:19:31;;;;;;;2.88;1.85;;;;;;;11.29;100.00;92979.78;5067760;28;20053;-75
2023/05/30 02:21:58;;;;;;;3.30;1.88;;;;;;;11.29;100.00;92994.47;5080071;28;20052;-75
2023/05/30 02:24:24;;;;;;;3.38;1.92;;;;;;;11.36;100.00;92992.56;5087662;28;20056;-75
2023/05/30 02:26:51;;;;;;;3.38;2.28;;;;;;;11.33;100.00;92988.66;5087548;28;20455;-75
2023/05/30 02:29:18;;;;;;;3.65;1.95;;;;;;;11.37;100.00;92994.13;5087681;28;20499;-75
2023/05/30 02:31:45;;;;;;;3.58;2.28;;;;;;;11.37;100.00;92983.84;5086751;28;20048;-75
2023/05/30 02:34:12;;;;;;;4.00;2.35;;;;;;;11.36;100.00;92985.63;5068252;28;20056;-75
2023/05/30 02:36:40;;;;;;;2.95;1.80;;;;;;;11.35;100.00;92989.19;5067359;28;20099;-75
2023/05/30 02:39:07;;;;;;;4.22;2.22;;;;;;;11.36;100.00;92985.63;5067846;28;20067;-75
2023/05/30 02:41:36;;;;;;;4.88;2.58;;;;;;;11.33;100.00;92987.84;5067393;28;20078;-75
2023/05/30 02:44:03;;;;;;;3.25;2.00;;;;;;;11.30;100.00;92988.31;5067864;28;20048;-76
2023/05/30 02:46:30;;;;;;;3.47;2.05;;;;;;;11.33;100.00;92998.94;5077268;28;20056;-75
2023/05/30 02:49:02;;;;;;;3.50;2.40;;;;;;;11.25;100.00;92970.19;5070814;28;20102;-76
2023/05/30 02:51:28;;;;;;;3.47;2.10;;;;;;;11.39;100.00;92991.34;5067610;28;20139;-76
2023/05/30 02:53:57;;;;;;;4.25;2.60;;;;;;;11.33;100.00;92982.72;5067137;28;20055;-76
2023/05/30 02:56:25;;;;;;;3.88;2.47;;;;;;;11.25;100.00;92980.47;5067073;28;20086;-76
2023/05/30 02:58:53;;;;;;;5.00;3.17;;;;;;;11.20;100.00;92991.41;5067080;28;20048;-75
2023/05/30 03:01:20;;;;;;;6.30;3.30;;;;;;;11.23;100.00;92993.53;5067066;28;20131;-76
2023/05/30 03:03:47;;;;;;;3.97;2.40;;;;;;;11.17;100.00;93002.13;5067339;28;20415;-76
2023/05/30 03:06:14;;;;;;;3.72;2.60;;;;;;;11.15;100.00;92999.00;5066612;28;20045;-76
2023/05/30 03:08:42;;;;;;;3.63;2.55;;;;;;;11.17;100.00;93002.13;5066958;28;20055;-77
2023/05/30 03:11:11;;;;;;;6.07;2.78;;;;;;;11.17;100.00;92999.56;5066880;28;20143;-77
2023/05/30 03:13:37;;;;;;;6.70;2.42;;;;;;;11.18;100.00;92994.19;5066975;28;20486;-77
2023/05/30 03:16:05;;;;;;;8.20;4.18;;;;;;;11.17;100.00;92989.28;5067075;28;20049;-77
2023/05/30 03:18:32;;;;;;;7.85;4.40;;;;;;;11.18;100.00;92993.41;5069306;28;20053;-77
2023/05/30 03:20:58;;;;;;;6.25;3.45;;;;;;;11.19;100.00;92990.63;5066872;28;20055;-77
2023/05/30 03:23:25;;;;;;;5.38;3.72;;;;;;;11.18;100.00;92991.63;5067048;28;20511;-77
2023/05/30 03:25:52;;;;;;;4.68;2.63;;;;;;;11.04;100.00;92982.50;5066485;28;20044;-77
2023/05/30 03:28:20;;;;;;;3.92;2.55;;;;;;;11.13;100.00;93004.34;5068097;28;20049;-78
2023/05/30 03:30:47;;;;;;;4.30;2.67;;;;;;;11.11;100.00;93000.44;5071278;28;20500;-78
2023/05/30 03:33:13;;;;;;;5.15;2.70;;;;;;;11.09;100.00;92993.72;5070292;28;20095;-78
2023/05/30 03:35:40;;;;;;;3.47;2.22;;;;;;;11.08;100.00;92999.06;5070925;28;20055;-77
2023/05/30 03:38:07;;;;;;;4.72;2.80;;;;;;;11.09;100.00;93005.78;5070830;28;20110;-78
2023/05/30 03:40:34;;;;;;;4.70;2.78;;;;;;;11.06;100.00;93014.72;5070186;28;20037;-78
2023/05/30 03:43:01;;;;;;;4.28;2.47;;;;;;;11.08;100.00;93011.94;5070907;28;20048;-78
2023/05/30 03:45:29;;;;;;;4.18;2.45;;;;;;;11.15;100.00;93012.63;5071651;28;20055;-77
2023/05/30 03:47:55;;;;;;;5.07;2.95;;;;;;;11.17;100.00;93009.84;5081954;28;20044;-77
2023/05/30 03:50:22;;;;;;;6.20;2.75;;;;;;;11.19;100.00;93010.38;5070079;28;20053;-77
2023/05/30 03:52:49;;;;;;;3.58;2.50;;;;;;;11.23;100.00;93014.09;5070112;28;20041;-77
2023/05/30 03:55:16;;;;;;;5.03;2.58;;;;;;;11.28;100.00;93008.28;5070053;28;20048;-77
2023/05/30 03:57:42;;;;;;;3.65;2.53;;;;;;;11.31;100.00;93015.59;5070173;28;20052;-77
2023/05/30 04:00:10;;;;;;;4.53;3.00;;;;;;;11.29;100.00;93033.03;5070365;28;20048;-77
2023/05/30 04:02:38;;;;;;;4.95;3.17;;;;;;;11.30;100.00;93027.66;5070517;28;20051;-77
2023/05/30 04:05:06;;;;;;;5.22;3.42;;;;;;;11.34;100.00;93036.50;5070156;28;20101;-77
2023/05/30 04:07:35;;;;;;;4.05;3.10;;;;;;;11.35;100.00;93037.28;5093569;28;20052;-77
2023/05/30 04:10:02;;;;;;;3.70;2.65;;;;;;;11.39;100.00;93037.63;5069806;28;20044;-77
2023/05/30 04:12:29;;;;;;;4.40;3.08;;;;;;;11.45;100.00;93036.75;5069873;28;20519;-77
2023/05/30 04:14:56;;;;;;;4.63;3.15;;;;;;;11.50;100.00;93034.31;5072750;28;20090;-77
2023/05/30 04:17:22;;;;;;;4.97;3.00;;;;;;;11.58;100.00;93039.13;5069877;28;20090;-77
2023/05/30 04:19:52;;;;;;;4.82;2.83;;;;;;;11.60;100.00;93029.44;5069980;28;20091;-77
2023/05/30 04:22:19;;;;;;;4.35;2.55;;;;;;;11.67;100.00;93042.19;5069456;28;20040;-77
2023/05/30 04:24:56;;;;;;;4.50;2.80;;;;;;;11.68;100.00;93030.09;5069739;28;20394;-77
2023/05/30 04:27:24;;;;;;;5.07;3.70;;;;;;;11.70;100.00;93041.75;5070344;28;20107;-77
2023/05/30 04:29:50;;;;;;;5.63;2.67;;;;;;;11.72;100.00;93044.88;5070015;28;20044;-76
2023/05/30 04:32:17;;;;;;;5.50;3.30;;;;;;;11.76;100.00;93037.53;5069450;28;20051;-76
2023/05/30 04:34:45;;;;;;;4.32;2.80;;;;;;;11.75;100.00;93043.66;5069709;28;20323;-76
2023/05/30 04:37:17;;;;;;;4.38;2.97;;;;;;;11.75;100.00;93041.09;5082264;28;20480;-76
2023/05/30 04:39:44;;;;;;;4.43;2.60;;;;;;;11.78;100.00;93043.22;5069166;28;20464;-76
2023/05/30 04:42:12;;;;;;;4.97;3.00;;;;;;;11.84;100.00;93044.13;5069154;28;20133;-77
2023/05/30 04:44:39;;;;;;;4.88;3.13;;;;;;;11.90;100.00;93043.25;5069253;28;20067;-76
2023/05/30 04:47:07;;;;;;;3.97;2.80;;;;;;;11.92;100.00;93038.66;5082861;28;20048;-74
2023/05/30 04:49:39;;;;;;;4.18;2.90;;;;;;;12.03;100.00;93055.91;5068698;28;20049;-74
2023/05/30 04:52:07;;;;;;;4.85;3.33;;;;;;;12.09;100.00;93051.69;5068935;28;20523;-74
2023/05/30 04:54:35;;;;;;;4.47;2.97;;;;;;;12.16;100.00;93054.94;5069138;28;20866;-75
2023/05/30 04:57:03;;;;;;;4.22;2.60;;;;;;;12.16;100.00;93044.66;5068916;28;20056;-74
2023/05/30 04:59:29;;;;;;;4.57;2.75;;;;;;;12.29;100.00;93053.16;5069112;28;20106;-75
2023/05/30 05:01:57;;;;;;;4.95;3.30;;;;;;;12.47;100.00;93061.78;5068837;28;20062;-75
2023/05/30 05:04:24;;;;;;;4.03;2.95;;;;;;;12.58;100.00;93063.56;5068812;28;20060;-75
2023/05/30 05:06:50;;;;;;;5.75;3.55;;;;;;;12.65;100.00;93058.31;5068294;28;20075;-75
2023/05/30 05:09:18;;;;;;;4.93;2.83;;;;;;;12.81;100.00;93062.75;5068978;28;20075;-75
2023/05/30 05:11:46;;;;;;;5.90;3.80;;;;;;;12.88;100.00;93056.69;5068697;28;20056;-75
2023/05/30 05:14:13;;;;;;;5.95;3.35;;;;;;;12.96;100.00;93059.69;5084702;28;20044;-75
2023/05/30 05:16:40;;;;;;;6.38;4.00;;;;;;;13.08;100.00;93064.84;5068828;28;20053;-75
2023/05/30 05:19:06;;;;;;;8.48;3.42;;;;;;;13.26;100.00;93068.25;5068781;28;20048;-75
2023/05/30 05:21:33;;;;;;;5.30;3.22;;;;;;;13.45;100.00;93073.22;5067980;28;20048;-75
2023/05/30 05:24:00;;;;;;;5.07;3.15;;;;;;;13.52;100.00;93062.81;5068636;28;20086;-75
2023/05/30 05:26:26;;;;;;;4.90;3.40;;;;;;;13.76;100.00;93079.75;5068438;28;20048;-75
2023/05/30 05:28:55;;;;;;;5.85;2.75;;;;;;;13.88;100.00;93071.94;5068081;28;20045;-75
2023/05/30 05:31:22;;;;;;;3.00;2.05;;;;;;;14.08;100.00;93077.66;5070289;28;20078;-76
2023/05/30 05:33:50;;;;;;;8.07;2.83;;;;;;;14.25;100.00;93083.63;5069353;28;20091;-75
2023/05/30 05:36:16;;;;;;;4.75;2.65;;;;;;;14.46;100.00;93091.69;5068036;28;20053;-75
2023/05/30 05:38:43;;;;;;;5.95;2.75;;;;;;;14.64;100.00;93079.53;5067931;28;20037;-75
2023/05/30 05:41:10;;;;;;;5.03;2.67;;;;;;;14.82;100.00;93092.19;5068163;28;20412;-75
2023/05/30 05:43:37;;;;;;;3.85;2.67;;;;;;;15.06;100.00;93093.78;5068230;28;20044;-77
2023/05/30 05:46:05;;;;;;;3.70;2.35;;;;;;;15.30;100.00;93106.47;5074206;28;20050;-77
2023/05/30 05:48:32;;;;;;;5.15;3.28;;;;;;;15.44;100.00;93102.50;5069395;28;20040;-76
2023/05/30 05:50:59;;;;;;;3.25;2.17;;;;;;;15.64;100.00;93103.75;5067333;28;20044;-77
2023/05/30 05:53:26;;;;;;;3.95;2.22;;;;;;;15.85;100.00;93101.34;5068002;28;20048;-77
2023/05/30 05:55:53;;;;;;;6.25;2.60;;;;;;;15.99;100.00;93102.56;5067970;28;20052;-77
2023/05/30 05:58:20;;;;;;;4.22;2.22;;;;;;;16.12;100.00;93105.78;5067773;28;20044;-77
2023/05/30 06:00:47;;;;;;;3.03;2.00;;;;;;;16.23;100.00;93106.63;5067774;28;20049;-77
2023/05/30 06:03:15;;;;;;;5.13;2.60;;;;;;;16.30;100.00;93097.63;5067925;28;20151;-75
2023/05/30 06:05:42;;;;;;;5.22;2.55;;;;;;;16.46;100.00;93102.94;5067386;28;20095;-76
2023/05/30 06:08:09;;;;;;;4.07;2.60;;;;;;;16.57;100.00;93098.56;5067390;28;20114;-75
2023/05/30 06:10:36;;;;;;;3.33;2.13;;;;;;;16.65;100.00;93105.09;5067706;28;20055;-76
2023/05/30 06:13:02;;;;;;;4.85;3.13;;;;;;;16.72;100.00;93110.88;5067302;28;20044;-76
2023/05/30 06:15:29;;;;;;;10.43;6.00;;;;;;;16.80;100.00;93109.63;5067418;28;20048;-76
2023/05/30 06:17:56;;;;;;;10.98;8.27;;;;;;;16.90;100.00;93111.50;5067234;28;20044;-75
2023/05/30 06:20:24;;;;;;;5.40;3.50;;;;;;;16.89;100.00;93112.53;5066906;28;20071;-76
2023/05/30 06:22:51;;;;;;;7.40;3.92;;;;;;;17.03;100.00;93120.69;5067798;28;20049;-76
2023/05/30 06:25:18;;;;;;;7.25;4.05;;;;;;;17.15;100.00;93117.88;5067422;28;20086;-76
2023/05/30 06:27:44;;;;;;;7.47;3.40;;;;;;;17.18;100.00;93114.78;5066941;28;20045;-76
2023/05/30 06:30:12;;;;;;;6.25;2.50;;;;;;;17.27;100.00;93110.66;5067555;28;20048;-75
2023/05/30 06:32:39;;;;;;;3.58;2.60;;;;;;;17.32;100.00;93112.50;5067131;28;20424;-77
2023/05/30 06:35:06;;;;;;;6.25;3.20;;;;;;;17.36;100.00;93103.94;5067203;28;20052;-77
2023/05/30 06:37:35;;;;;;;5.65;3.95;;;;;;;17.56;100.00;93117.25;5067311;28;20048;-77
2023/05/30 06:40:08;;;;;;;5.80;3.13;;;;;;;17.71;100.00;93116.50;5067988;28;20485;-76
2023/05/30 06:42:35;;;;;;;4.25;3.05;;;;;;;17.80;100.00;93112.38;5068073;28;20505;-77
2023/05/30 06:45:02;;;;;;;5.57;2.75;;;;;;;17.94;100.00;93117.88;5080636;28;20076;-77
2023/05/30 06:47:29;;;;;;;3.47;2.28;;;;;;;18.05;100.00;93112.69;5079962;28;20497;-77
2023/05/30 06:49:55;;;;;;;3.80;2.55;;;;;;;18.22;100.00;93118.44;5078299;28;20520;-77
2023/05/30 06:52:22;;;;;;;3.38;1.77;;;;;;;18.26;100.00;93111.69;5087110;28;20052;-77
2023/05/30 06:54:50;;;;;;;2.58;1.67;;;;;;;18.49;100.00;93121.81;5087182;28;20051;-77
2023/05/30 06:57:17;;;;;;;3.08;1.98;;;;;;;18.63;100.00;93120.25;5087071;28;20043;-75
2023/05/30 06:59:44;;;;;;;4.50;2.20;;;;;;;18.79;100.00;93125.44;5087047;28;20877;-75
2023/05/30 07:02:11;;;;;;;4.32;2.45;;;;;;;18.91;100.00;93122.53;5077080;28;20056;-75
2023/05/30 07:04:37;;;;;;;3.28;2.20;;;;;;;19.09;100.00;93126.44;5074843;28;20515;-76
2023/05/30 07:07:05;;;;;;;3.08;2.05;;;;;;;19.26;100.00;93130.56;5081498;28;20048;-75
2023/05/30 07:09:32;;;;;;;4.82;2.72;;;;;;;19.39;100.00;93124.00;5087794;28;20048;-75
2023/05/30 07:12:00;;;;;;;4.07;2.05;;;;;;;19.54;100.00;93133.59;5091133;28;20055;-75
2023/05/30 07:14:27;;;;;;;4.45;2.30;;;;;;;19.75;100.00;93142.06;5091028;28;20048;-76
2023/05/30 07:16:54;;;;;;;2.88;1.60;;;;;;;19.88;100.00;93136.28;5090208;28;20048;-75
2023/05/30 07:19:21;;;;;;;2.60;1.52;;;;;;;20.02;98.62;93140.91;5090882;28;20059;-75
2023/05/30 07:21:48;;;;;;;3.55;1.92;;;;;;;20.09;98.46;93143.22;5090857;28;20040;-75
2023/05/30 07:24:14;;;;;;;3.47;2.47;;;;;;;20.22;98.91;93141.84;5090432;28;20510;-75
2023/05/30 07:26:41;;;;;;;2.92;1.80;;;;;;;20.14;94.78;93138.75;5090802;28;20048;-75
2023/05/30 07:29:09;;;;;;;6.70;1.83;;;;;;;20.22;96.76;93139.25;5090862;28;20047;-75
2023/05/30 07:31:36;;;;;;;3.45;1.73;;;;;;;19.72;96.29;93134.81;5090258;28;20047;-75
2023/05/30 07:34:03;;;;;;;1.80;1.40;;;;;;;19.96;98.57;93141.97;5090589;28;20039;-75
2023/05/30 07:36:30;;;;;;;2.85;1.50;;;;;;;19.41;100.00;93140.94;5090774;28;20052;-75
2023/05/30 07:38:57;;;;;;;3.53;1.58;;;;;;;19.61;100.00;93141.88;5090488;28;20048;-75
2023/05/30 07:41:23;;;;;;;3.88;1.85;;;;;;;19.16;100.00;93139.19;5090451;28;20043;-76
2023/05/30 07:43:50;;;;;;;3.92;1.63;;;;;;;19.14;99.23;93143.88;5090481;28;20044;-76
2023/05/30 07:46:22;;;;;;;3.35;1.60;;;;;;;19.40;100.00;93144.59;5089563;28;20549;-76
2023/05/30 07:48:49;;;;;;;2.63;1.58;;;;;;;19.30;97.64;93139.41;5090262;28;20044;-76
2023/05/30 07:51:17;;;;;;;2.70;1.65;;;;;;;19.72;97.55;93153.81;5090446;28;20052;-76
2023/05/30 07:53:44;;;;;;;3.22;1.77;;;;;;;19.77;95.89;93145.22;5090397;28;20051;-76
2023/05/30 07:56:11;;;;;;;2.80;1.92;;;;;;;19.97;96.41;93149.56;5090298;28;20508;-76
2023/05/30 07:58:37;;;;;;;3.38;2.30;;;;;;;19.86;95.28;93148.03;5090091;28;20404;-76
2023/05/30 08:01:05;;;;;;;2.92;1.92;;;;;;;19.85;95.63;93142.03;5089748;28;20566;-75
2023/05/30 08:03:34;;;;;;;3.67;2.42;;;;;;;19.45;96.83;93146.38;5090221;28;20067;-76
2023/05/30 08:06:00;;;;;;;3.35;2.20;;;;;;;19.56;96.27;93147.09;5090550;28;20822;-75
2023/05/30 08:08:27;;;;;;;3.85;1.92;;;;;;;19.50;97.14;93130.72;5090324;28;20059;-75
2023/05/30 08:10:54;;;;;;;2.72;1.90;;;;;;;19.64;97.76;93146.56;5090239;28;20366;-77
2023/05/30 08:13:26;;;;;;;3.58;1.73;;;;;;;19.16;97.25;93145.16;5089673;28;20048;-76
2023/05/30 08:15:53;;;;;;;5.50;2.67;;;;;;;19.05;100.00;93143.63;5089012;28;20052;-76
2023/05/30 08:18:21;;;;;;;4.18;2.17;;;;;;;19.25;100.00;93140.19;5090088;28;20439;-77
2023/05/30 08:20:50;;;;;;;4.18;2.33;;;;;;;19.39;100.00;93150.06;5089522;28;20488;-76
2023/05/30 08:23:17;;;;;;;3.10;2.03;;;;;;;19.27;100.00;93145.13;5084979;28;20067;-76
2023/05/30 08:25:45;;;;;;;5.80;2.55;;;;;;;19.23;100.00;93144.88;5082758;28;21368;-77
2023/05/30 08:28:12;;;;;;;3.90;2.22;;;;;;;19.36;100.00;93133.91;5089709;28;20397;-76
2023/05/30 08:30:41;;;;;;;5.13;2.15;;;;;;;18.61;100.00;93142.38;5089504;28;20056;-77
2023/05/30 08:33:09;;;;;;;4.60;3.00;;;;;;;18.95;100.00;93141.81;5089643;28;20058;-76
2023/05/30 08:35:36;;;;;;;4.43;2.78;;;;;;;18.87;100.00;93147.53;5089125;28;20433;-76
2023/05/30 08:38:04;;;;;;;3.42;2.17;;;;;;;18.33;100.00;93144.44;5089633;28;20048;-76
2023/05/30 08:40:31;;;;;;;3.60;2.28;;;;;;;18.63;100.00;93141.06;5089852;28;20446;-76
2023/05/30 08:42:58;;;;;;;3.17;2.20;;;;;;;18.85;100.00;93152.22;5089336;28;20040;-75
2023/05/30 08:45:24;;;;;;;3.20;2.30;;;;;;;19.14;100.00;93141.25;5088818;28;20093;-75
2023/05/30 08:47:54;;;;;;;3.33;2.40;;;;;;;18.95;99.99;93147.00;5089200;28;20557;-75
2023/05/30 08:50:22;;;;;;;3.53;1.90;;;;;;;19.45;100.00;93141.94;5089314;28;20071;-75
2023/05/30 08:52:52;;;;;;;15.18;2.65;;;;;;;19.08;100.00;93149.09;5089010;28;20047;-75
2023/05/30 08:55:26;;;;;;;3.67;1.90;;;;;;;18.68;100.00;93140.28;5088941;28;20113;-76
2023/05/30 08:58:04;;;;;;;8.23;2.88;;;;;;;18.57;100.00;93147.31;5088233;28;20059;-76
2023/05/30 09:00:32;;;;;;;4.50;2.65;;;;;;;18.95;100.00;93147.81;5089097;28;20113;-75
2023/05/30 09:02:59;;;;;;;3.92;2.10;;;;;;;18.78;100.00;93142.06;5088962;28;20048;-76
2023/05/30 09:05:27;;;;;;;5.47;2.15;;;;;;;19.34;99.20;93149.03;5087971;28;20072;-76
2023/05/30 09:07:56;;;;;;;3.80;2.40;;;;;;;19.34;98.48;93143.03;5087723;28;20044;-75
2023/05/30 09:10:25;;;;;;;5.18;3.13;;;;;;;19.59;99.20;93147.34;5088760;28;20048;-75
2023/05/30 09:12:52;;;;;;;5.40;3.03;;;;;;;19.13;98.76;93148.31;5088758;28;20505;-76
2023/05/30 09:15:19;;;;;;;7.03;3.25;;;;;;;18.95;100.00;93150.41;5089271;28;20055;-77
2023/05/30 09:17:46;;;;;;;5.13;2.67;;;;;;;18.85;100.00;93147.81;5094176;28;20223;-76
2023/05/30 09:20:17;;;;;;;7.72;3.15;;;;;;;19.04;100.00;93152.47;5088725;28;20505;-75
2023/05/30 09:22:44;;;;;;;5.78;3.08;;;;;;;19.04;100.00;93149.88;5088651;28;20116;-75
2023/05/30 09:25:15;;;;;;;4.13;2.60;;;;;;;19.02;100.00;93142.31;5088332;28;20047;-76
2023/05/30 09:27:47;;;;;;;3.92;2.25;;;;;;;18.81;100.00;93136.34;5088017;28;20071;-76
2023/05/30 09:30:14;;;;;;;5.45;2.90;;;;;;;19.08;100.00;93132.69;5088267;28;20089;-76
2023/05/30 09:32:42;;;;;;;6.72;3.33;;;;;;;18.78;100.00;93142.88;5088364;28;20040;-76
2023/05/30 09:35:10;;;;;;;6.80;3.45;;;;;;;18.61;100.00;93132.72;5088616;28;20097;-76
2023/05/30 09:37:38;;;;;;;4.53;2.38;;;;;;;18.99;100.00;93139.44;5088349;28;20051;-76
2023/05/30 09:40:09;;;;;;;3.53;2.15;;;;;;;18.87;100.00;93132.69;5083461;28;20056;-75
2023/05/30 09:42:40;;;;;;;5.28;2.40;;;;;;;18.79;100.00;93136.63;5075313;28;20280;-76
2023/05/30 09:45:11;;;;;;;4.78;3.28;;;;;;;18.93;100.00;93134.25;5088307;28;20052;-75
2023/05/30 09:47:42;;;;;;;4.25;2.50;;;;;;;19.13;100.00;93132.69;5088370;28;20048;-75
2023/05/30 09:50:11;;;;;;;3.55;2.38;;;;;;;19.18;100.00;93139.69;5088447;28;20145;-75
2023/05/30 09:52:38;;;;;;;3.95;2.47;;;;;;;19.05;100.00;93128.00;5088442;28;20080;-75
2023/05/30 09:55:06;;;;;;;4.05;2.15;;;;;;;19.46;100.00;93116.69;5087795;28;20052;-75
2023/05/30 09:57:37;;;;;;;3.03;2.00;;;;;;;19.75;99.74;93129.03;5087298;28;20093;-75
2023/05/30 10:00:09;;;;;;;4.93;2.90;;;;;;;20.07;100.00;93133.06;5087886;28;20051;-75
2023/05/30 10:02:38;;;;;;;5.70;2.45;;;;;;;19.76;100.00;93128.78;5087965;28;20440;-75
2023/05/30 10:05:07;;;;;;;8.40;4.55;;;;;;;19.94;100.00;93115.41;5087719;28;20549;-75
2023/05/30 10:07:35;;;;;;;3.78;2.17;;;;;;;19.59;99.40;93126.50;5087538;28;20044;-76
2023/05/30 10:10:03;;;;;;;4.50;2.22;;;;;;;19.89;96.76;93127.41;5087569;28;20134;-75
2023/05/30 10:12:31;;;;;;;3.65;2.28;;;;;;;19.72;97.17;93111.34;5087120;28;20524;-75
2023/05/30 10:14:58;;;;;;;2.33;1.50;;;;;;;19.88;93.99;93120.66;5087362;28;20082;-75
2023/05/30 10:17:31;;;;;;;2.72;1.80;;;;;;;19.65;96.20;93116.06;5087696;28;20048;-76
2023/05/30 10:20:04;;;;;;;3.30;2.03;;;;;;;19.56;98.63;93106.22;5087656;28;20048;-75
2023/05/30 10:22:35;;;;;;;3.55;2.33;;;;;;;19.46;95.85;93108.88;5088020;28;20052;-76
2023/05/30 10:25:04;;;;;;;3.40;1.80;;;;;;;19.90;98.31;93096.91;5074486;28;20044;-75
2023/05/30 10:27:32;;;;;;;2.72;1.45;;;;;;;19.61;95.27;93100.97;5087702;28;20952;-76
2023/05/30 10:30:04;;;;;;;2.33;1.00;;;;;;;19.51;92.57;93095.81;5087744;28;20070;-75
2023/05/30 10:32:35;;;;;;;3.08;1.35;;;;;;;19.35;95.57;93097.72;5087412;28;20488;-75
2023/05/30 10:35:08;;;;;;;2.08;1.30;;;;;;;19.41;90.51;93101.84;5097326;28;20499;-76
2023/05/30 10:37:36;;;;;;;2.55;1.30;;;;;;;19.49;95.32;93084.91;5089226;28;20056;-75
2023/05/30 10:40:16;;;;;;;22.05;3.17;;;;;;;19.58;94.52;93095.53;5087146;28;20040;-75
2023/05/30 10:42:48;;;;;;;3.85;1.73;;;;;;;19.44;90.32;93093.50;5087238;28;20044;-76
2023/05/30 10:45:17;;;;;;;14.57;4.47;;;;;;;19.16;94.89;93068.88;5087716;28;20056;-76
2023/05/30 10:47:55;;;;;;;4.13;1.90;;;;;;;19.46;97.00;93075.00;5087390;28;20044;-75
2023/05/30 10:50:29;;;;;;;5.95;1.85;;;;;;;19.44;96.53;93077.88;5087255;28;20389;-75
2023/05/30 10:52:56;;;;;;;3.92;1.95;;;;;;;19.54;93.34;93081.47;5087317;28;20052;-75
2023/05/30 10:55:23;;;;;;;4.38;2.15;;;;;;;19.55;92.94;93077.81;5075905;28;20056;-76
2023/05/30 10:57:50;;;;;;;4.07;2.28;;;;;;;19.26;95.13;93050.63;5082910;28;20059;-76
2023/05/30 11:00:23;;;;;;;3.53;1.77;;;;;;;19.42;94.50;93063.56;5087335;28;20071;-75
2023/05/30 11:02:51;;;;;;;3.92;1.25;;;;;;;19.30;91.17;93063.88;5086935;28;20520;-75
2023/05/30 11:05:21;;;;;;;2.65;1.38;;;;;;;19.26;90.18;93061.03;5087416;28;20044;-76
2023/05/30 11:07:49;;;;;;;2.60;1.08;;;;;;;19.31;93.03;93047.22;5086746;28;20071;-76
2023/05/30 11:10:25;;;;;;;2.97;1.38;;;;;;;19.51;93.20;93030.69;5086621;28;20105;-76
2023/05/30 11:12:53;;;;;;;1.88;1.02;;;;;;;19.73;89.12;93038.09;5086880;28;20040;-76
2023/05/30 11:15:33;;;;;;;1.92;0.93;;;;;;;19.67;84.05;93041.78;5086912;28;20048;-76
2023/05/30 11:17:59;;;;;;;3.75;2.03;;;;;;;19.67;88.13;93038.41;5086913;28;20071;-75
2023/05/30 11:20:27;;;;;;;1.85;1.20;;;;;;;19.81;90.75;93025.56;5086977;28;20044;-76
2023/05/30 11:23:21;;;;;;;7.22;2.78;;;;;;;20.52;89.83;93020.03;5086307;28;20048;-76
2023/05/30 11:25:48;;;;;;;5.28;2.63;;;;;;;20.42;84.15;93018.31;5068675;28;20537;-76
2023/05/30 11:28:16;;;;;;;2.55;1.35;;;;;;;20.66;85.33;93018.34;5066408;28;20631;-76
2023/05/30 11:30:50;;;;;;;4.22;1.90;;;;;;;20.60;84.67;93022.03;5066484;28;20049;-75